createdAt,value
2023-04-25T00:00:13.471Z,1.38
2023-04-25T00:02:44.001Z,1.27
2023-04-25T00:05:16.397Z,1.77
2023-04-25T00:07:47.224Z,2.33
2023-04-25T00:10:17.555Z,1.75
2023-04-25T00:12:48.002Z,2.25
2023-04-25T00:15:20.908Z,1.85
2023-04-25T00:17:54.150Z,2.22
2023-04-25T00:20:24.576Z,2.15
2023-04-25T00:22:54.952Z,1.80
2023-04-25T00:25:25.470Z,1.67
2023-04-25T00:27:55.784Z,1.67
2023-04-25T00:30:28.697Z,1.50
2023-04-25T00:32:59.225Z,2.08
2023-04-25T00:35:29.536Z,2.03
2023-04-25T00:37:59.848Z,2.03
2023-04-25T00:40:30.259Z,2.03
2023-04-25T00:43:00.837Z,2.97
2023-04-25T00:45:34.901Z,2.35
2023-04-25T00:48:05.515Z,2.50
2023-04-25T00:50:37.027Z,2.35
2023-04-25T00:53:07.827Z,2.00
2023-04-25T00:55:38.544Z,1.95
2023-04-25T00:58:08.889Z,1.83
2023-04-25T01:00:42.056Z,2.33
2023-04-25T01:03:13.077Z,2.30
2023-04-25T01:05:44.200Z,1.98
2023-04-25T01:08:14.517Z,1.95
2023-04-25T01:10:44.927Z,2.55
2023-04-25T01:13:15.312Z,1.92
2023-04-25T01:15:48.227Z,1.48
2023-04-25T01:18:18.921Z,2.20
2023-04-25T01:20:50.129Z,1.90
2023-04-25T01:25:53.370Z,2.28
2023-04-25T01:28:24.041Z,2.17
2023-04-25T01:30:54.851Z,2.13
2023-04-25T01:33:26.033Z,2.05
2023-04-25T01:35:56.372Z,2.75
2023-04-25T01:38:27.490Z,2.25
2023-04-25T01:41:00.723Z,1.90
2023-04-25T01:43:31.370Z,2.05
2023-04-25T01:46:02.120Z,2.10
2023-04-25T01:48:32.503Z,1.80
2023-04-25T01:51:02.794Z,1.75
2023-04-25T01:53:33.269Z,1.65
2023-04-25T01:56:06.202Z,2.22
2023-04-25T01:58:36.571Z,1.50
2023-04-25T02:01:07.062Z,2.58
2023-04-25T02:03:37.523Z,2.10
2023-04-25T02:06:08.248Z,2.00
2023-04-25T02:08:39.047Z,1.50
2023-04-25T02:11:11.927Z,1.75
2023-04-25T02:13:42.273Z,1.83
2023-04-25T02:16:12.659Z,1.80
2023-04-25T02:18:43.727Z,1.75
2023-04-25T02:21:13.992Z,1.42
2023-04-25T02:23:44.334Z,1.45
2023-04-25T02:26:17.272Z,2.13
2023-04-25T02:28:49.384Z,1.30
2023-04-25T02:31:19.731Z,1.50
2023-04-25T02:33:50.234Z,1.80
2023-04-25T02:36:20.700Z,1.45
2023-04-25T02:38:51.424Z,1.55
2023-04-25T02:41:24.575Z,1.50
2023-04-25T02:43:54.872Z,1.75
2023-04-25T02:46:37.785Z,1.95
2023-04-25T02:51:39.601Z,1.90
2023-04-25T02:54:10.156Z,1.95
2023-04-25T02:56:43.159Z,1.58
2023-04-25T02:59:13.473Z,1.65
2023-04-25T03:01:44.063Z,1.63
2023-04-25T03:04:14.404Z,1.90
2023-04-25T03:06:44.779Z,1.27
2023-04-25T03:09:15.414Z,1.20
2023-04-25T03:11:48.862Z,1.65
2023-04-25T03:14:19.171Z,1.45
2023-04-25T03:16:49.611Z,1.85
2023-04-25T03:19:19.946Z,2.05
2023-04-25T03:21:50.284Z,1.80
2023-04-25T03:24:20.668Z,1.75
2023-04-25T03:26:53.612Z,2.33
2023-04-25T03:29:26.835Z,2.00
2023-04-25T03:31:57.247Z,1.88
2023-04-25T03:34:27.891Z,1.70
2023-04-25T03:36:58.250Z,1.50
2023-04-25T03:39:28.534Z,1.23
2023-04-25T03:42:02.248Z,1.65
2023-04-25T03:44:32.528Z,1.58
2023-04-25T03:47:03.253Z,1.65
2023-04-25T03:49:33.947Z,1.75
2023-04-25T03:52:04.340Z,1.77
2023-04-25T03:54:34.647Z,1.60
2023-04-25T03:57:07.593Z,1.95
2023-04-25T03:59:37.872Z,1.95
2023-04-25T04:02:08.302Z,1.58
2023-04-25T04:04:38.832Z,1.40
2023-04-25T04:07:09.285Z,1.20
2023-04-25T04:09:39.618Z,1.13
2023-04-25T04:12:13.015Z,1.02
2023-04-25T04:14:43.341Z,1.27
2023-04-25T04:17:13.641Z,1.10
2023-04-25T04:19:43.946Z,1.42
2023-04-25T04:22:14.348Z,1.27
2023-04-25T04:24:45.113Z,1.20
2023-04-25T04:27:18.630Z,1.40
2023-04-25T04:29:48.907Z,1.08
2023-04-25T04:32:19.923Z,1.23
2023-04-25T04:34:50.763Z,1.33
2023-04-25T04:37:21.084Z,1.10
2023-04-25T04:39:51.423Z,1.27
2023-04-25T04:42:25.407Z,2.17
2023-04-25T04:44:56.230Z,1.33
2023-04-25T04:47:27.140Z,1.85
2023-04-25T04:49:57.428Z,1.33
2023-04-25T04:52:27.864Z,1.42
2023-04-25T04:54:58.150Z,1.50
2023-04-25T04:57:31.178Z,1.45
2023-04-25T05:00:01.744Z,1.60
2023-04-25T05:02:32.254Z,1.75
2023-04-25T05:05:02.596Z,1.55
2023-04-25T05:07:33.191Z,1.48
2023-04-25T05:10:04.824Z,1.88
2023-04-25T05:12:37.724Z,1.83
2023-04-25T05:15:08.315Z,2.00
2023-04-25T05:17:38.699Z,1.30
2023-04-25T05:20:10.525Z,1.60
2023-04-25T05:22:42.798Z,1.35
2023-04-25T05:25:13.436Z,1.45
2023-04-25T05:27:46.689Z,2.00
2023-04-25T05:30:17.069Z,1.42
2023-04-25T05:32:48.037Z,1.15
2023-04-25T05:35:18.591Z,1.90
2023-04-25T05:37:48.962Z,1.45
2023-04-25T05:40:19.236Z,1.15
2023-04-25T05:42:52.184Z,1.33
2023-04-25T05:45:22.459Z,1.52
2023-04-25T05:47:52.923Z,1.60
2023-04-25T05:50:23.230Z,1.50
2023-04-25T05:52:53.575Z,1.23
2023-04-25T05:55:23.897Z,1.60
2023-04-25T05:57:56.861Z,1.13
2023-04-25T06:00:27.274Z,1.23
2023-04-25T06:02:57.768Z,1.45
2023-04-25T06:05:28.286Z,0.98
2023-04-25T06:07:58.685Z,0.93
2023-04-25T06:10:29.031Z,1.10
2023-04-25T06:13:01.993Z,1.17
2023-04-25T06:15:33.583Z,1.17
2023-04-25T06:18:04.086Z,1.08
2023-04-25T06:20:34.364Z,1.35
2023-04-25T06:23:04.714Z,1.08
2023-04-25T06:25:35.028Z,0.82
2023-04-25T06:28:08.435Z,1.02
2023-04-25T06:30:38.762Z,1.00
2023-04-25T06:33:09.886Z,0.73
2023-04-25T06:38:10.392Z,1.23
2023-04-25T06:40:40.694Z,1.13
2023-04-25T06:43:13.732Z,0.80
2023-04-25T06:45:45.261Z,0.82
2023-04-25T06:48:17.385Z,0.90
2023-04-25T06:50:47.737Z,0.65
2023-04-25T06:53:18.061Z,1.05
2023-04-25T06:55:48.357Z,0.57
2023-04-25T06:58:21.421Z,1.00
2023-04-25T07:00:51.768Z,0.63
2023-04-25T07:03:22.702Z,0.93
2023-04-25T07:05:53.200Z,0.90
2023-04-25T07:08:23.735Z,0.82
2023-04-25T07:10:54.065Z,1.08
2023-04-25T07:13:27.278Z,0.82
2023-04-25T07:15:58.119Z,1.08
2023-04-25T07:18:28.607Z,0.90
2023-04-25T07:20:59.481Z,0.70
2023-04-25T07:23:29.929Z,0.90
2023-04-25T07:26:00.409Z,0.93
2023-04-25T07:28:33.342Z,1.15
2023-04-25T07:31:03.881Z,1.58
2023-04-25T07:33:34.863Z,0.90
2023-04-25T07:36:05.262Z,0.85
2023-04-25T07:38:35.617Z,0.80
2023-04-25T07:41:06.183Z,1.63
2023-04-25T07:43:39.253Z,0.70
2023-04-25T07:46:09.676Z,1.30
2023-04-25T07:48:40.067Z,1.30
2023-04-25T07:51:10.386Z,0.95
2023-04-25T07:53:41.003Z,0.80
2023-04-25T07:56:11.831Z,0.40
2023-04-25T07:58:44.796Z,0.80
2023-04-25T08:01:15.097Z,0.60
2023-04-25T08:03:45.602Z,0.77
2023-04-25T08:06:16.672Z,0.68
2023-04-25T08:08:47.417Z,0.90
2023-04-25T08:11:17.770Z,0.68
2023-04-25T08:13:50.739Z,0.70
2023-04-25T08:16:21.187Z,0.60
2023-04-25T08:18:51.688Z,1.20
2023-04-25T08:21:22.140Z,0.82
2023-04-25T08:23:52.508Z,0.43
2023-04-25T08:26:22.784Z,1.20
2023-04-25T08:28:55.839Z,0.57
2023-04-25T08:31:26.242Z,0.70
2023-04-25T08:33:56.630Z,0.70
2023-04-25T08:36:38.604Z,0.65
2023-04-25T08:39:10.920Z,0.57
2023-04-25T08:41:42.283Z,0.57
2023-04-25T08:44:15.881Z,0.52
2023-04-25T08:46:48.339Z,0.70
2023-04-25T08:49:19.173Z,0.77
2023-04-25T08:51:51.810Z,0.73
2023-04-25T08:54:35.403Z,0.70
2023-04-25T08:57:07.886Z,0.90
2023-04-25T08:59:41.833Z,0.50
2023-04-25T09:02:15.741Z,0.98
2023-04-25T09:04:47.585Z,0.60
2023-04-25T09:07:22.274Z,0.40
2023-04-25T09:09:52.801Z,0.60
2023-04-25T09:12:23.473Z,0.70
2023-04-25T09:15:10.610Z,0.73
2023-04-25T09:17:41.661Z,0.95
2023-04-25T09:20:12.952Z,0.60
2023-04-25T09:22:44.155Z,0.43
2023-04-25T09:25:15.779Z,0.73
2023-04-25T09:27:55.356Z,0.57
2023-04-25T09:30:36.345Z,0.77
2023-04-25T09:33:10.466Z,0.75
2023-04-25T09:35:42.097Z,0.40
2023-04-25T09:38:14.352Z,0.60
2023-04-25T09:40:46.352Z,1.52
2023-04-25T09:43:23.620Z,1.17
2023-04-25T09:45:59.920Z,0.68
2023-04-25T09:48:31.159Z,0.85
2023-04-25T09:51:11.773Z,0.80
2023-04-25T09:53:42.861Z,1.75
2023-04-25T09:56:13.791Z,0.80
2023-04-25T09:58:45.170Z,0.63
2023-04-25T10:01:18.209Z,0.82
2023-04-25T10:03:50.197Z,0.52
2023-04-25T10:06:23.142Z,0.52
2023-04-25T10:08:57.049Z,0.40
2023-04-25T10:11:29.078Z,0.50
2023-04-25T10:14:00.730Z,0.63
2023-04-25T10:16:33.747Z,0.50
2023-04-25T10:19:04.514Z,0.50
2023-04-25T10:24:05.192Z,0.50
2023-04-25T10:26:35.679Z,0.77
2023-04-25T10:29:07.096Z,0.88
2023-04-25T10:31:49.077Z,0.43
2023-04-25T10:34:20.608Z,0.40
2023-04-25T10:36:55.112Z,0.30
2023-04-25T10:39:28.784Z,0.70
2023-04-25T10:42:00.545Z,0.63
2023-04-25T10:44:34.554Z,0.75
2023-04-25T10:47:07.606Z,0.57
2023-04-25T10:49:38.863Z,0.88
2023-04-25T10:52:22.874Z,1.02
2023-04-25T10:54:53.716Z,0.90
2023-04-25T10:57:37.138Z,0.98
2023-04-25T11:00:12.353Z,1.30
2023-04-25T11:02:48.185Z,1.05
2023-04-25T11:05:27.253Z,1.00
2023-04-25T11:08:07.049Z,0.93
2023-04-25T11:10:39.151Z,0.70
2023-04-25T11:13:09.526Z,0.80
2023-04-25T11:15:39.967Z,1.75
2023-04-25T11:18:12.901Z,1.60
2023-04-25T11:20:43.232Z,1.38
2023-04-25T11:23:13.593Z,0.82
2023-04-25T11:25:43.926Z,2.20
2023-04-25T11:28:14.295Z,0.80
2023-04-25T11:30:46.296Z,0.75
2023-04-25T11:33:19.320Z,0.75
2023-04-25T11:35:49.642Z,0.40
2023-04-25T11:38:21.486Z,0.60
2023-04-25T11:40:54.892Z,0.47
2023-04-25T11:43:25.594Z,0.52
2023-04-25T11:45:56.279Z,0.45
2023-04-25T11:48:29.584Z,0.45
2023-04-25T11:50:59.852Z,0.32
2023-04-25T11:53:30.538Z,0.43
2023-04-25T11:56:00.980Z,0.43
2023-04-25T11:58:31.547Z,0.40
2023-04-25T12:01:04.227Z,0.40
2023-04-25T12:03:37.560Z,0.43
2023-04-25T12:06:08.419Z,0.63
2023-04-25T12:08:41.593Z,0.93
2023-04-25T12:11:24.764Z,0.60
2023-04-25T12:13:56.852Z,0.50
2023-04-25T12:16:27.246Z,0.32
2023-04-25T12:19:00.895Z,0.60
2023-04-25T12:21:35.397Z,0.60
2023-04-25T12:24:15.998Z,0.68
2023-04-25T12:26:55.910Z,0.57
2023-04-25T12:29:29.547Z,0.40
2023-04-25T12:32:02.935Z,0.65
2023-04-25T12:34:37.211Z,0.60
2023-04-25T12:37:07.562Z,0.50
2023-04-25T12:39:37.930Z,0.68
2023-04-25T12:42:09.996Z,0.40
2023-04-25T12:44:40.593Z,0.38
2023-04-25T12:47:11.159Z,0.50
2023-04-25T12:49:44.349Z,0.65
2023-04-25T12:52:14.713Z,0.50
2023-04-25T12:54:45.062Z,0.30
2023-04-25T12:57:15.399Z,1.00
2023-04-25T12:59:45.754Z,0.65
2023-04-25T13:02:16.091Z,0.73
2023-04-25T13:04:49.891Z,0.65
2023-04-25T13:07:20.187Z,0.50
2023-04-25T13:09:50.525Z,0.40
2023-04-25T13:12:21.090Z,0.43
2023-04-25T13:14:51.541Z,0.52
2023-04-25T13:17:21.854Z,0.40
2023-04-25T13:19:54.832Z,0.63
2023-04-25T13:22:25.266Z,0.40
2023-04-25T13:24:55.958Z,0.93
2023-04-25T13:27:26.399Z,0.60
2023-04-25T13:29:56.880Z,1.00
2023-04-25T13:32:27.202Z,0.47
2023-04-25T13:35:00.144Z,0.40
2023-04-25T13:37:31.707Z,0.40
2023-04-25T13:40:02.300Z,0.55
2023-04-25T13:42:32.595Z,0.43
2023-04-25T13:45:03.434Z,0.43
2023-04-25T13:47:34.593Z,0.50
2023-04-25T13:50:08.493Z,0.52
2023-04-25T13:52:38.801Z,0.50
2023-04-25T13:55:09.872Z,0.40
2023-04-25T13:57:41.472Z,0.47
2023-04-25T14:00:12.866Z,1.40
2023-04-25T14:02:43.291Z,0.52
2023-04-25T14:05:16.556Z,0.60
2023-04-25T14:07:46.932Z,0.73
2023-04-25T14:10:17.364Z,0.60
2023-04-25T14:12:47.672Z,0.43
2023-04-25T14:15:18.080Z,0.52
2023-04-25T14:17:49.534Z,0.70
2023-04-25T14:20:25.105Z,0.60
2023-04-25T14:22:57.195Z,0.50
2023-04-25T14:25:27.608Z,0.68
2023-04-25T14:27:57.997Z,0.57
2023-04-25T14:30:28.473Z,0.40
2023-04-25T14:32:59.101Z,0.70
2023-04-25T14:35:32.126Z,0.43
2023-04-25T14:38:02.437Z,0.50
2023-04-25T14:40:32.808Z,0.90
2023-04-25T14:43:03.178Z,0.50
2023-04-25T14:45:33.923Z,0.68
2023-04-25T14:48:04.497Z,0.50
2023-04-25T14:50:37.522Z,0.38
2023-04-25T14:53:09.178Z,0.50
2023-04-25T14:55:39.508Z,0.50
2023-04-25T14:58:09.833Z,0.50
2023-04-25T15:00:40.410Z,0.30
2023-04-25T15:03:14.131Z,0.98
2023-04-25T15:05:47.588Z,0.68
2023-04-25T15:08:17.885Z,0.50
2023-04-25T15:10:49.040Z,1.33
2023-04-25T15:13:20.652Z,0.90
2023-04-25T15:15:52.571Z,0.60
2023-04-25T15:18:23.170Z,0.55
2023-04-25T15:20:56.535Z,0.60
2023-04-25T15:23:29.597Z,0.50
2023-04-25T15:26:00.180Z,0.50
2023-04-25T15:28:30.470Z,0.38
2023-04-25T15:31:00.834Z,0.47
2023-04-25T15:33:31.126Z,0.68
2023-04-25T15:36:04.581Z,0.40
2023-04-25T15:38:34.980Z,0.75
2023-04-25T15:41:06.189Z,0.68
2023-04-25T15:43:38.958Z,0.63
2023-04-25T15:46:09.587Z,0.50
2023-04-25T15:48:39.979Z,0.82
2023-04-25T15:51:13.562Z,0.60
2023-04-25T15:53:44.614Z,0.70
2023-04-25T15:58:45.029Z,1.08
2023-04-25T16:01:15.554Z,0.50
2023-04-25T16:03:45.946Z,0.77
2023-04-25T16:06:19.007Z,0.52
2023-04-25T16:08:49.312Z,0.60
2023-04-25T16:11:19.774Z,0.60
2023-04-25T16:13:50.514Z,0.70
2023-04-25T16:16:21.792Z,0.60
2023-04-25T16:18:52.226Z,0.82
2023-04-25T16:21:25.293Z,0.63
2023-04-25T16:23:55.621Z,0.52
2023-04-25T16:26:26.062Z,0.60
2023-04-25T16:28:56.404Z,0.75
2023-04-25T16:31:26.817Z,0.40
2023-04-25T16:33:57.139Z,0.40
2023-04-25T16:36:30.143Z,0.35
2023-04-25T16:39:01.300Z,0.70
2023-04-25T16:41:32.225Z,0.50
2023-04-25T16:44:02.819Z,0.43
2023-04-25T16:46:33.150Z,0.95
2023-04-25T16:49:03.830Z,0.60
2023-04-25T16:51:37.008Z,0.70
2023-04-25T16:54:07.886Z,0.50
2023-04-25T16:56:38.339Z,0.80
2023-04-25T16:59:08.704Z,0.77
2023-04-25T17:01:39.295Z,0.55
2023-04-25T17:04:09.728Z,0.60
2023-04-25T17:06:42.738Z,0.60
2023-04-25T17:09:13.091Z,0.50
2023-04-25T17:11:43.469Z,0.75
2023-04-25T17:14:13.759Z,0.75
2023-04-25T17:16:44.341Z,0.45
2023-04-25T17:19:14.717Z,0.52
2023-04-25T17:21:47.818Z,0.68
2023-04-25T17:24:18.415Z,0.60
2023-04-25T17:26:49.094Z,0.50
2023-04-25T17:29:19.495Z,0.47
2023-04-25T17:31:50.290Z,0.60
2023-04-25T17:34:21.074Z,0.63
2023-04-25T17:36:54.839Z,0.70
2023-04-25T17:39:25.426Z,0.43
2023-04-25T17:41:55.848Z,0.73
2023-04-25T17:44:26.538Z,0.47
2023-04-25T17:46:56.875Z,0.70
2023-04-25T17:49:27.173Z,0.80
2023-04-25T17:52:00.341Z,0.70
2023-04-25T17:54:30.699Z,0.68
2023-04-25T17:57:01.280Z,0.70
2023-04-25T17:59:31.690Z,0.98
2023-04-25T18:02:02.108Z,0.50
2023-04-25T18:04:33.026Z,0.85
2023-04-25T18:07:06.090Z,0.50
2023-04-25T18:09:36.493Z,0.50
2023-04-25T18:12:06.966Z,0.60
2023-04-25T18:14:37.730Z,0.60
2023-04-25T18:17:09.163Z,0.60
2023-04-25T18:19:39.479Z,0.60
2023-04-25T18:22:13.294Z,1.20
2023-04-25T18:24:44.916Z,0.68
2023-04-25T18:27:15.267Z,0.63
2023-04-25T18:29:45.769Z,0.50
2023-04-25T18:32:16.367Z,0.70
2023-04-25T18:34:50.180Z,0.73
2023-04-25T18:37:23.120Z,0.43
2023-04-25T18:39:53.466Z,0.98
2023-04-25T18:42:24.139Z,1.30
2023-04-25T18:44:54.458Z,0.80
2023-04-25T18:47:25.019Z,0.60
2023-04-25T18:49:55.688Z,0.80
2023-04-25T18:52:30.495Z,0.90
2023-04-25T18:55:00.804Z,0.60
2023-04-25T18:57:31.169Z,0.85
2023-04-25T19:00:05.305Z,0.70
2023-04-25T19:02:35.910Z,0.52
2023-04-25T19:05:06.527Z,0.57
2023-04-25T19:07:40.601Z,0.70
2023-04-25T19:10:11.702Z,0.70
2023-04-25T19:12:42.202Z,0.60
2023-04-25T19:15:12.794Z,0.70
2023-04-25T19:17:44.608Z,1.13
2023-04-25T19:20:16.491Z,0.80
2023-04-25T19:22:49.443Z,0.68
2023-04-25T19:25:19.709Z,1.00
2023-04-25T19:27:50.294Z,1.08
2023-04-25T19:30:20.676Z,1.15
2023-04-25T19:32:51.081Z,0.63
2023-04-25T19:35:22.424Z,1.05
2023-04-25T19:37:55.332Z,0.85
2023-04-25T19:40:26.797Z,0.60
2023-04-25T19:42:57.366Z,0.55
2023-04-25T19:45:27.856Z,0.90
2023-04-25T19:47:58.313Z,0.70
2023-04-25T19:50:28.724Z,0.80
2023-04-25T19:53:01.881Z,0.73
2023-04-25T19:55:32.220Z,0.90
2023-04-25T19:58:03.534Z,0.70
2023-04-25T20:03:04.699Z,1.20
2023-04-25T20:08:08.056Z,0.90
2023-04-25T20:10:38.421Z,0.82
2023-04-25T20:13:08.887Z,1.42
2023-04-25T20:15:39.268Z,0.98
2023-04-25T20:18:09.689Z,0.90
2023-04-25T20:20:40.038Z,0.73
2023-04-25T20:23:12.983Z,1.08
2023-04-25T20:25:43.690Z,0.85
2023-04-25T20:28:14.086Z,0.70
2023-04-25T20:30:44.369Z,1.40
2023-04-25T20:33:14.727Z,0.88
2023-04-25T20:35:45.084Z,1.00
2023-04-25T20:38:18.096Z,0.90
2023-04-25T20:40:48.426Z,0.90
2023-04-25T20:43:20.100Z,1.00
2023-04-25T20:45:50.640Z,0.82
2023-04-25T20:48:21.053Z,1.02
2023-04-25T20:50:51.721Z,1.55
2023-04-25T20:53:24.754Z,0.77
2023-04-25T20:55:55.274Z,1.40
2023-04-25T20:58:25.696Z,1.00
2023-04-25T21:00:56.614Z,0.98
2023-04-25T21:03:27.210Z,1.88
2023-04-25T21:05:57.544Z,0.77
2023-04-25T21:08:30.492Z,1.23
2023-04-25T21:11:00.812Z,0.73
2023-04-25T21:13:31.430Z,1.02
2023-04-25T21:16:01.741Z,1.25
2023-04-25T21:18:34.906Z,1.17
2023-04-25T21:21:05.937Z,1.30
2023-04-25T21:23:38.978Z,1.00
2023-04-25T21:26:09.318Z,2.08
2023-04-25T21:28:39.782Z,1.83
2023-04-25T21:31:10.284Z,1.10
2023-04-25T21:33:40.835Z,1.15
2023-04-25T21:36:11.402Z,1.38
2023-04-25T21:38:44.493Z,1.00
2023-04-25T21:41:14.886Z,1.20
2023-04-25T21:43:45.457Z,1.55
2023-04-25T21:46:23.366Z,1.58
2023-04-25T21:48:54.776Z,1.38
2023-04-25T21:54:00.812Z,1.02
2023-04-25T21:56:31.141Z,1.33
2023-04-25T21:59:01.777Z,1.30
2023-04-25T22:01:32.271Z,1.58
2023-04-25T22:04:02.814Z,1.63
2023-04-25T22:06:33.273Z,1.85
2023-04-25T22:09:06.384Z,1.23
2023-04-25T22:11:36.914Z,1.75
2023-04-25T22:14:07.298Z,1.20
2023-04-25T22:16:37.817Z,1.65
2023-04-25T22:19:09.755Z,1.50
2023-04-25T22:21:40.042Z,1.77
2023-04-25T22:24:13.874Z,1.58
2023-04-25T22:26:44.204Z,2.03
2023-04-25T22:29:14.553Z,1.40
2023-04-25T22:31:44.936Z,1.30
2023-04-25T22:34:15.312Z,1.50
2023-04-25T22:36:45.592Z,1.20
2023-04-25T22:39:19.529Z,1.30
2023-04-25T22:41:50.348Z,1.63
2023-04-25T22:44:22.407Z,1.60
2023-04-25T22:46:53.040Z,1.50
2023-04-25T22:49:24.600Z,1.75
2023-04-25T22:51:56.889Z,2.15
2023-04-25T22:54:30.663Z,1.85
2023-04-25T22:57:01.043Z,1.55
2023-04-25T22:59:31.397Z,1.42
2023-04-25T23:02:01.814Z,1.40
2023-04-25T23:04:32.277Z,1.65
2023-04-25T23:07:02.628Z,1.88
2023-04-25T23:09:35.594Z,1.67
2023-04-25T23:12:06.052Z,1.23
2023-04-25T23:14:36.490Z,1.80
2023-04-25T23:17:07.040Z,1.63
2023-04-25T23:19:38.041Z,1.58
2023-04-25T23:22:09.307Z,1.90
2023-04-25T23:24:42.474Z,1.40
2023-04-25T23:27:13.050Z,1.90
2023-04-25T23:29:43.379Z,2.13
2023-04-25T23:32:13.849Z,2.10
2023-04-25T23:34:44.317Z,2.17
2023-04-25T23:37:14.633Z,1.50
2023-04-25T23:39:51.177Z,2.13
2023-04-25T23:42:21.558Z,1.20
2023-04-25T23:44:51.989Z,1.27
2023-04-25T23:47:22.337Z,1.48
2023-04-25T23:49:52.817Z,1.50
2023-04-25T23:52:23.711Z,1.60
2023-04-25T23:54:56.938Z,1.88
2023-04-25T23:57:27.277Z,1.88
2023-04-25T23:59:57.869Z,1.35
